Arlington, California
Current Conditions -  °F | °C
As of 11:53 AM on Sunday 25 Jan 2015 (Local Time) from KRAL Reporting Station
Clear Clear  
Wind Chill: 80°   Ceiling: Unl
Heat Index: 80°   Visibility: 10mi
Dew Point: 25°   Wind: 7mph
Humidity: 13%   Direction: NA
Pressure: 30.03"   Gusts: NA
Location:  33.8878°N, 117.453°W
Report Text: KRAL 251953Z VRB06KT 10SM CLR 27/M04 A3003 RMK AO2 SLP155 T02671039
Loading
Personal Weather Stations






























Interactive Weather Map New forecast layout! Learn more

10-Day Weather Forecast

Advertisements
Track Severe Weather on mobile